createdAt,value
2017-01-07T00:00:59.358Z,73.6
2017-01-07T00:02:05.516Z,73.6
2017-01-07T00:03:10.704Z,73.6
2017-01-07T00:04:16.865Z,73.41
2017-01-07T00:05:22.062Z,73.6
2017-01-07T00:06:26.301Z,73.32
2017-01-07T00:07:31.500Z,73.41
2017-01-07T00:08:36.692Z,73.32
2017-01-07T00:09:40.902Z,73.41
2017-01-07T00:10:46.102Z,73.22
2017-01-07T00:11:51.097Z,73.22
2017-01-07T00:12:54.322Z,72.85
2017-01-07T00:13:59.520Z,72.75
2017-01-07T00:15:04.709Z,73.03
2017-01-07T00:16:09.911Z,73.22
2017-01-07T00:17:15.096Z,73.32
2017-01-07T00:18:20.287Z,73.79
2017-01-07T00:19:25.484Z,73.79
2017-01-07T00:20:30.683Z,73.79
2017-01-07T00:21:34.890Z,73.22
2017-01-07T00:22:39.109Z,73.32
2017-01-07T00:23:45.271Z,73.6
2017-01-07T00:24:50.440Z,73.69
2017-01-07T00:25:55.639Z,73.41
2017-01-07T00:27:00.837Z,73.51
2017-01-07T00:28:06.075Z,73.51
2017-01-07T00:29:11.275Z,73.41
2017-01-07T00:30:17.456Z,72.85
2017-01-07T00:31:23.596Z,72.94
2017-01-07T00:32:27.838Z,72.85
2017-01-07T00:33:33.991Z,72.75
2017-01-07T00:34:38.210Z,72.94
2017-01-07T00:35:44.383Z,72.56
2017-01-07T00:36:48.613Z,72.47
2017-01-07T00:37:53.806Z,72.28
2017-01-07T00:38:59.108Z,72
2017-01-07T00:40:04.308Z,72.19
2017-01-07T00:41:10.486Z,72
2017-01-07T00:42:16.695Z,71.56
2017-01-07T00:43:21.956Z,71.34
2017-01-07T00:44:26.058Z,71.28
2017-01-07T00:45:32.233Z,71.94
2017-01-07T00:46:37.403Z,71.37
2017-01-07T00:47:42.603Z,72.03
2017-01-07T00:48:48.784Z,71.28
2017-01-07T00:49:53.979Z,71.56
2017-01-07T00:50:59.175Z,70.81
2017-01-07T00:52:04.348Z,70.72
2017-01-07T00:53:10.519Z,70.81
2017-01-07T00:54:15.717Z,70.53
2017-01-07T00:55:20.027Z,70.34
2017-01-07T00:56:24.215Z,71.09
2017-01-07T00:57:29.408Z,70.53
2017-01-07T00:58:34.614Z,70.62
2017-01-07T00:59:40.791Z,71
2017-01-07T01:00:46.008Z,71.09
2017-01-07T01:01:52.240Z,70.9
2017-01-07T01:02:56.421Z,70.62
2017-01-07T01:04:01.616Z,70.81
2017-01-07T01:05:04.961Z,70.81
2017-01-07T01:06:11.124Z,70.62
2017-01-07T01:07:15.336Z,70.62
2017-01-07T01:08:20.634Z,71
2017-01-07T01:09:26.803Z,70.81
2017-01-07T01:10:32.962Z,70.81
2017-01-07T01:11:39.247Z,70.9
2017-01-07T01:12:45.409Z,70.62
2017-01-07T01:13:50.602Z,70.62
2017-01-07T01:14:56.757Z,70.24
2017-01-07T01:16:01.997Z,70.43
2017-01-07T01:17:08.108Z,70.43
2017-01-07T01:18:13.305Z,70.81
2017-01-07T01:19:18.470Z,70.72
2017-01-07T01:20:23.677Z,70.9
2017-01-07T01:21:29.867Z,70.81
2017-01-07T01:22:35.033Z,70.62
2017-01-07T01:23:41.191Z,70.81
2017-01-07T01:24:46.350Z,70.53
2017-01-07T01:25:50.657Z,70.53
2017-01-07T01:26:55.865Z,71
2017-01-07T01:28:01.152Z,70.81
2017-01-07T01:29:07.336Z,70.9
2017-01-07T01:30:13.467Z,70.62
2017-01-07T01:31:18.657Z,70.72
2017-01-07T01:32:24.819Z,70.9
2017-01-07T01:33:29.126Z,71
2017-01-07T01:34:34.321Z,70.24
2017-01-07T01:35:39.620Z,70.34
2017-01-07T01:36:45.223Z,70.24
2017-01-07T01:37:51.386Z,70.34
2017-01-07T01:40:01.733Z,70.24
2017-01-07T01:41:06.947Z,70.9
2017-01-07T01:42:12.140Z,70.81
2017-01-07T01:43:16.887Z,70.24
2017-01-07T01:44:22.095Z,69.96
2017-01-07T01:45:26.324Z,70.05
2017-01-07T01:46:30.646Z,70.15
2017-01-07T01:47:36.848Z,69.77
2017-01-07T01:48:42.974Z,69.58
2017-01-07T01:49:48.144Z,69.58
2017-01-07T01:50:53.333Z,70.15
2017-01-07T01:51:58.536Z,70.15
2017-01-07T01:53:03.736Z,70.05
2017-01-07T01:54:08.958Z,70.05
2017-01-07T01:55:15.118Z,69.86
2017-01-07T01:56:19.348Z,70.15
2017-01-07T01:57:25.502Z,69.96
2017-01-07T01:58:29.716Z,70.05
2017-01-07T01:59:35.875Z,69.86
2017-01-07T02:00:40.106Z,69.96
2017-01-07T02:01:45.263Z,69.86
2017-01-07T02:02:51.422Z,70.05
2017-01-07T02:03:57.583Z,69.77
2017-01-07T02:05:03.745Z,69.58
2017-01-07T02:06:07.999Z,69.58
2017-01-07T02:07:14.236Z,69.67
2017-01-07T02:08:18.459Z,69.49
2017-01-07T02:09:23.658Z,69.49
2017-01-07T02:10:28.884Z,69.58
2017-01-07T02:11:35.016Z,69.58
2017-01-07T02:12:39.217Z,69.86
2017-01-07T02:13:43.489Z,69.67
2017-01-07T02:14:48.645Z,69.49
2017-01-07T02:15:53.874Z,69.58
2017-01-07T02:17:00.033Z,69.77
2017-01-07T02:18:05.295Z,69.58
2017-01-07T02:19:10.494Z,69.67
2017-01-07T02:20:14.717Z,69.58
2017-01-07T02:21:19.947Z,69.67
2017-01-07T02:22:26.087Z,69.49
2017-01-07T02:23:32.244Z,69.58
2017-01-07T02:24:38.413Z,69.77
2017-01-07T02:25:44.583Z,69.39
2017-01-07T02:26:49.772Z,69.3
2017-01-07T02:27:54.962Z,69.11
2017-01-07T02:29:01.120Z,69.2
2017-01-07T02:30:05.352Z,69.39
2017-01-07T02:31:11.548Z,69.01
2017-01-07T02:32:16.788Z,69.11
2017-01-07T02:33:20.981Z,69.39
2017-01-07T02:34:27.131Z,69.49
2017-01-07T02:35:33.285Z,69.39
2017-01-07T02:36:37.513Z,69.11
2017-01-07T02:37:42.713Z,69.11
2017-01-07T02:38:47.968Z,69.2
2017-01-07T02:39:54.096Z,69.2
2017-01-07T02:40:57.424Z,69.2
2017-01-07T02:42:01.625Z,69.3
2017-01-07T02:43:05.845Z,69.39
2017-01-07T02:44:11.037Z,69.39
2017-01-07T02:45:14.381Z,69.11
2017-01-07T02:46:20.551Z,69.58
2017-01-07T02:47:26.712Z,69.11
2017-01-07T02:48:32.882Z,69.3
2017-01-07T02:49:39.046Z,69.3
2017-01-07T02:50:44.255Z,69.01
2017-01-07T02:51:50.501Z,69.2
2017-01-07T02:52:56.665Z,69.2
2017-01-07T02:54:02.844Z,69.39
2017-01-07T02:55:07.128Z,69.49
2017-01-07T02:56:12.290Z,69.49
2017-01-07T02:57:15.550Z,69.67
2017-01-07T02:58:21.762Z,69.49
2017-01-07T02:59:27.946Z,69.77
2017-01-07T03:00:33.122Z,69.77
2017-01-07T03:01:39.306Z,69.49
2017-01-07T03:02:45.475Z,69.11
2017-01-07T03:03:50.743Z,69.3
2017-01-07T03:04:53.976Z,69.3
2017-01-07T03:05:59.172Z,69.01
2017-01-07T03:07:05.332Z,69.3
2017-01-07T03:08:09.534Z,69.11
2017-01-07T03:09:13.753Z,69.39
2017-01-07T03:10:19.919Z,69.3
2017-01-07T03:11:25.113Z,69.39
2017-01-07T03:12:30.314Z,68.92
2017-01-07T03:13:36.480Z,68.92
2017-01-07T03:14:41.667Z,69.01
2017-01-07T03:15:44.909Z,68.92
2017-01-07T03:16:51.073Z,68.54
2017-01-07T03:19:00.506Z,69.3
2017-01-07T03:20:05.743Z,69.2
2017-01-07T03:21:09.950Z,69.58
2017-01-07T03:22:16.124Z,69.11
2017-01-07T03:23:21.312Z,69.11
2017-01-07T03:24:25.512Z,69.39
2017-01-07T03:25:31.669Z,69.2
2017-01-07T03:26:37.826Z,69.01
2017-01-07T03:27:44.006Z,68.92
2017-01-07T03:28:50.191Z,68.92
2017-01-07T03:29:56.093Z,68.92
2017-01-07T03:31:01.289Z,69.2
2017-01-07T03:32:04.633Z,69.39
2017-01-07T03:33:09.833Z,69.3
2017-01-07T03:34:15.031Z,69.11
2017-01-07T03:35:21.194Z,68.63
2017-01-07T03:36:27.361Z,69.01
2017-01-07T03:37:33.522Z,69.3
2017-01-07T03:38:37.750Z,69.3
2017-01-07T03:39:43.908Z,69.3
2017-01-07T03:40:49.102Z,69.2
2017-01-07T03:41:54.295Z,69.3
2017-01-07T03:42:59.486Z,69.2
2017-01-07T03:44:05.646Z,69.2
2017-01-07T03:45:11.817Z,69.01
2017-01-07T03:46:18.027Z,69.01
2017-01-07T03:47:23.192Z,69.2
2017-01-07T03:48:29.354Z,69.2
2017-01-07T03:49:35.531Z,68.92
2017-01-07T03:50:41.680Z,69.11
2017-01-07T03:51:47.713Z,69.11
2017-01-07T03:52:52.499Z,68.63
2017-01-07T03:53:58.666Z,68.92
2017-01-07T03:55:03.822Z,68.73
2017-01-07T03:56:10.019Z,68.82
2017-01-07T03:57:16.148Z,69.2
2017-01-07T03:58:22.306Z,69.2
2017-01-07T03:59:28.463Z,68.92
2017-01-07T04:00:32.693Z,68.63
2017-01-07T04:01:38.867Z,68.54
2017-01-07T04:02:44.067Z,68.73
2017-01-07T04:03:49.255Z,69.01
2017-01-07T04:04:55.414Z,68.82
2017-01-07T04:05:59.647Z,69.01
2017-01-07T04:07:03.876Z,69.01
2017-01-07T04:08:09.179Z,68.73
2017-01-07T04:09:14.338Z,68.73
2017-01-07T04:10:17.601Z,68.92
2017-01-07T04:11:23.757Z,69.2
2017-01-07T04:12:28.954Z,68.63
2017-01-07T04:13:35.114Z,68.92
2017-01-07T04:14:40.311Z,68.92
2017-01-07T04:15:46.465Z,69.67
2017-01-07T04:16:52.712Z,69.58
2017-01-07T04:17:58.239Z,70.05
2017-01-07T04:19:03.433Z,70.34
2017-01-07T04:20:07.634Z,70.81
2017-01-07T04:21:13.803Z,71.47
2017-01-07T04:22:18.958Z,71.56
2017-01-07T04:23:22.357Z,71.47
2017-01-07T04:24:27.212Z,71.94
2017-01-07T04:25:31.474Z,72.32
2017-01-07T04:26:37.378Z,72.79
2017-01-07T04:27:42.569Z,73.45
2017-01-07T04:28:48.780Z,74.49
2017-01-07T04:29:54.935Z,75.05
2017-01-07T04:31:00.149Z,76
2017-01-07T04:32:06.347Z,77.23
2017-01-07T04:33:12.496Z,78.08
2017-01-07T04:34:16.678Z,78.45
2017-01-07T04:35:21.847Z,78.83
2017-01-07T04:36:27.052Z,79.68
2017-01-07T04:37:33.346Z,79.87
2017-01-07T04:38:38.557Z,80.25
2017-01-07T04:39:43.856Z,80.53
2017-01-07T04:40:47.677Z,80.72
2017-01-07T04:41:52.906Z,80.82
2017-01-07T04:42:59.069Z,81.29
2017-01-07T04:44:05.197Z,81.67
2017-01-07T04:45:11.349Z,82.61
2017-01-07T04:46:16.563Z,82.32
2017-01-07T04:47:21.754Z,82.99
2017-01-07T04:48:26.946Z,82.61
2017-01-07T04:49:31.175Z,83.84
2017-01-07T04:50:37.334Z,83.74
2017-01-07T04:51:43.493Z,83.93
2017-01-07T04:52:46.790Z,84.31
2017-01-07T04:53:52.951Z,84.78
2017-01-07T04:54:58.203Z,84.69
2017-01-07T04:56:03.387Z,85.16
2017-01-07T04:57:05.664Z,85.72
2017-01-07T04:58:10.850Z,86.1
2017-01-07T04:59:15.086Z,86.1
2017-01-07T05:00:19.320Z,86.48
2017-01-07T05:01:25.205Z,87.05
2017-01-07T05:02:31.371Z,86.86
2017-01-07T05:03:35.609Z,86.76
2017-01-07T05:04:40.825Z,86.95
2017-01-07T05:05:47.058Z,86.95
2017-01-07T05:06:53.211Z,86.86
2017-01-07T05:07:58.401Z,87.14
2017-01-07T05:09:03.584Z,87.43
2017-01-07T05:10:08.776Z,87.52
2017-01-07T05:11:13.978Z,87.52
2017-01-07T05:12:18.622Z,87.43
2017-01-07T05:13:24.788Z,87.14
2017-01-07T05:14:31.002Z,87.14
2017-01-07T05:15:34.269Z,87.33
2017-01-07T05:16:39.466Z,87.24
2017-01-07T05:17:43.653Z,87.33
2017-01-07T05:18:48.852Z,87.62
2017-01-07T05:19:55.004Z,88.09
2017-01-07T05:21:01.169Z,87.9
2017-01-07T05:22:07.361Z,88.46
2017-01-07T05:23:12.492Z,88.18
2017-01-07T05:24:18.646Z,88.18
2017-01-07T05:25:22.842Z,88.28
2017-01-07T05:26:28.085Z,88.09
2017-01-07T05:27:34.244Z,88.18
2017-01-07T05:29:43.644Z,89.22
2017-01-07T05:30:48.838Z,89.03
2017-01-07T05:31:55.006Z,88.84
2017-01-07T05:33:00.162Z,88.56
2017-01-07T05:34:05.349Z,88.75
2017-01-07T05:35:09.558Z,89.12
2017-01-07T05:36:13.831Z,88.93
2017-01-07T05:37:19.991Z,89.03
2017-01-07T05:38:25.252Z,88.75
2017-01-07T05:39:31.403Z,89.03
2017-01-07T05:40:36.657Z,90.07
2017-01-07T05:41:41.808Z,89.97
2017-01-07T05:42:46.027Z,90.16
2017-01-07T05:43:51.228Z,90.16
2017-01-07T05:44:56.407Z,90.73
2017-01-07T05:46:01.600Z,90.45
2017-01-07T05:47:07.799Z,90.73
2017-01-07T05:48:13.924Z,90.35
2017-01-07T05:49:19.117Z,90.45
2017-01-07T05:50:25.277Z,90.54
2017-01-07T05:51:30.648Z,90.64
2017-01-07T05:52:35.850Z,90.64
2017-01-07T05:53:40.149Z,89.97
2017-01-07T05:54:45.335Z,90.16
2017-01-07T05:55:49.562Z,90.26
2017-01-07T05:56:54.759Z,89.97
2017-01-07T05:58:00.942Z,89.88
2017-01-07T05:59:07.141Z,89.88
2017-01-07T06:00:13.299Z,89.97
2017-01-07T06:01:19.462Z,89.88
2017-01-07T06:02:23.680Z,90.07
2017-01-07T06:03:28.878Z,89.22
2017-01-07T06:04:33.145Z,89.5
2017-01-07T06:05:38.310Z,89.5
2017-01-07T06:06:42.528Z,89.31
2017-01-07T06:07:47.720Z,89.59
2017-01-07T06:08:52.917Z,89.22
2017-01-07T06:09:58.214Z,89.5
2017-01-07T06:11:03.407Z,89.97
2017-01-07T06:12:09.610Z,89.31
2017-01-07T06:13:14.740Z,89.59
2017-01-07T06:14:19.930Z,89.22
2017-01-07T06:15:23.170Z,89.78
2017-01-07T06:16:29.341Z,89.22
2017-01-07T06:17:34.533Z,89.31
2017-01-07T06:18:40.691Z,89.69
2017-01-07T06:19:46.858Z,90.26
2017-01-07T06:20:53.016Z,90.16
2017-01-07T06:21:59.179Z,90.07
2017-01-07T06:23:04.365Z,89.22
2017-01-07T06:24:09.303Z,89.4
2017-01-07T06:25:13.502Z,89.4
2017-01-07T06:26:19.661Z,89.4
2017-01-07T06:27:23.915Z,89.03
2017-01-07T06:28:28.140Z,89.59
2017-01-07T06:29:34.298Z,89.03
2017-01-07T06:30:39.488Z,89.12
2017-01-07T06:31:42.717Z,89.5
2017-01-07T06:32:48.881Z,89.97
2017-01-07T06:33:55.039Z,89.97
2017-01-07T06:35:00.259Z,89.88
2017-01-07T06:36:06.097Z,89.97
2017-01-07T06:37:10.294Z,89.97
2017-01-07T06:38:15.552Z,89.88
2017-01-07T06:39:20.745Z,90.07
2017-01-07T06:40:26.919Z,89.88
2017-01-07T06:41:33.079Z,89.69
2017-01-07T06:42:37.300Z,89.69
2017-01-07T06:43:42.490Z,89.22
2017-01-07T06:44:47.039Z,89.88
2017-01-07T06:45:51.240Z,89.97
2017-01-07T06:46:57.452Z,89.22
2017-01-07T06:48:03.576Z,89.31
2017-01-07T06:49:09.895Z,89.4
2017-01-07T06:50:15.537Z,89.59
2017-01-07T06:51:21.701Z,89.12
2017-01-07T06:52:27.030Z,89.03
2017-01-07T06:53:31.183Z,89.12
2017-01-07T06:54:34.440Z,89.12
2017-01-07T06:55:39.622Z,89.12
2017-01-07T06:56:44.838Z,89.22
2017-01-07T06:57:51.125Z,89.5
2017-01-07T06:58:57.257Z,89.97
2017-01-07T07:00:03.417Z,89.88
2017-01-07T07:01:08.579Z,89.88
2017-01-07T07:02:14.789Z,90.26
2017-01-07T07:03:20.955Z,89.22
2017-01-07T07:04:27.221Z,89.97
2017-01-07T07:05:32.393Z,90.07
2017-01-07T07:06:37.623Z,89.69
2017-01-07T07:07:43.780Z,90.16
2017-01-07T07:08:49.960Z,90.07
2017-01-07T07:09:54.190Z,89.88
2017-01-07T07:11:00.359Z,89.4
2017-01-07T07:12:04.581Z,90.16
2017-01-07T07:13:10.746Z,89.97
2017-01-07T07:14:14.977Z,90.16
2017-01-07T07:15:21.155Z,89.69
2017-01-07T07:16:26.328Z,89.97
2017-01-07T07:17:31.500Z,89.88
2017-01-07T07:18:36.781Z,90.16
2017-01-07T07:19:41.985Z,90.07
2017-01-07T07:20:47.141Z,89.78
2017-01-07T07:21:51.462Z,90.16
2017-01-07T07:22:56.628Z,90.07
2017-01-07T07:24:02.785Z,89.97
2017-01-07T07:25:08.008Z,89.88
2017-01-07T07:26:12.329Z,89.97
2017-01-07T07:27:16.497Z,89.22
2017-01-07T07:28:22.667Z,89.4
2017-01-07T07:29:27.835Z,89.4
2017-01-07T07:30:32.134Z,89.12
2017-01-07T07:31:38.294Z,89.03
2017-01-07T07:32:43.484Z,88.65
2017-01-07T07:33:47.683Z,89.31
2017-01-07T07:34:52.884Z,88.65
2017-01-07T07:35:59.043Z,88.84
2017-01-07T07:37:05.221Z,89.12
2017-01-07T07:38:11.385Z,88.93
2017-01-07T07:39:15.607Z,89.22
2017-01-07T07:40:20.783Z,89.22
2017-01-07T07:41:26.952Z,89.12
2017-01-07T07:42:33.164Z,88.65
2017-01-07T07:43:38.360Z,88.75
2017-01-07T07:44:43.575Z,88.75
2017-01-07T07:45:48.771Z,89.22
2017-01-07T07:46:54.932Z,88.93
2017-01-07T07:48:00.133Z,89.31
2017-01-07T07:49:05.371Z,88.56
2017-01-07T07:50:11.565Z,88.28
2017-01-07T07:51:17.725Z,88.65
2017-01-07T07:52:21.966Z,88.56
2017-01-07T07:53:28.107Z,88.56
2017-01-07T07:54:32.297Z,88.93
2017-01-07T07:55:35.638Z,88.37
2017-01-07T07:56:41.812Z,88.75
2017-01-07T07:57:44.082Z,88.46
2017-01-07T07:58:49.279Z,88.65
2017-01-07T07:59:53.501Z,88.93
2017-01-07T08:00:57.692Z,88.75
2017-01-07T08:02:02.883Z,88.84
2017-01-07T08:03:08.073Z,88.75
2017-01-07T08:04:14.377Z,89.03
2017-01-07T08:05:20.502Z,88.65
2017-01-07T08:06:25.693Z,89.03
2017-01-07T08:07:30.955Z,89.03
2017-01-07T08:08:35.117Z,88.93
2017-01-07T08:09:40.992Z,88.65
2017-01-07T08:10:46.181Z,88.09
2017-01-07T08:11:52.341Z,88.09
2017-01-07T08:12:56.572Z,88.75
2017-01-07T08:14:02.739Z,88.65
2017-01-07T08:15:07.994Z,88.65
2017-01-07T08:16:12.206Z,88.65
2017-01-07T08:17:18.339Z,88.93
2017-01-07T08:18:23.508Z,88.56
2017-01-07T08:19:29.802Z,88.65
2017-01-07T08:20:34.973Z,88.37
2017-01-07T08:21:41.147Z,88.37
2017-01-07T08:22:45.340Z,88.37
2017-01-07T08:23:50.530Z,87.9
2017-01-07T08:24:54.756Z,88.18
2017-01-07T08:25:59.922Z,88.09
2017-01-07T08:27:05.185Z,87.71
2017-01-07T08:28:11.355Z,88.09
2017-01-07T08:29:16.547Z,87.71
2017-01-07T08:30:20.775Z,88.09
2017-01-07T08:31:26.939Z,88.09
2017-01-07T08:32:33.104Z,88.28
2017-01-07T08:33:39.261Z,88.28
2017-01-07T08:34:45.427Z,88.65
2017-01-07T08:35:51.592Z,88.84
2017-01-07T08:36:57.784Z,88.37
2017-01-07T08:38:03.959Z,88.56
2017-01-07T08:39:10.126Z,88.09
2017-01-07T08:40:15.316Z,88.28
2017-01-07T08:41:21.475Z,88.09
2017-01-07T08:42:25.677Z,87.8
2017-01-07T08:43:30.874Z,87.8
2017-01-07T08:44:36.062Z,87.9
2017-01-07T08:45:42.229Z,87.9
2017-01-07T08:46:47.431Z,87.9
2017-01-07T08:47:53.594Z,87.33
2017-01-07T08:48:59.757Z,87.33
2017-01-07T08:50:03.954Z,87.14
2017-01-07T08:51:28.415Z,87.43
2017-01-07T08:52:32.556Z,87.24
2017-01-07T08:53:38.714Z,87.33
2017-01-07T08:54:44.883Z,87.24
2017-01-07T08:55:51.048Z,86.95
2017-01-07T08:56:57.243Z,87.14
2017-01-07T08:58:03.367Z,87.24
2017-01-07T08:59:09.539Z,87.05
2017-01-07T09:00:13.734Z,86.1
2017-01-07T09:01:17.976Z,86.1
2017-01-07T09:02:23.237Z,86.48
2017-01-07T09:03:28.474Z,86.19
2017-01-07T09:04:33.625Z,86.1
2017-01-07T09:05:38.813Z,86.38
2017-01-07T09:06:44.051Z,85.01
2017-01-07T09:07:50.213Z,85.63
2017-01-07T09:08:56.427Z,85.35
2017-01-07T09:10:02.826Z,84.69
2017-01-07T09:11:09.258Z,84.69
2017-01-07T09:12:15.385Z,84.69
2017-01-07T09:13:21.554Z,84.41
2017-01-07T09:14:28.023Z,84.64
2017-01-07T09:15:33.814Z,84.73
2017-01-07T09:16:39.447Z,84.64
2017-01-07T09:17:45.919Z,84.45
2017-01-07T09:18:52.057Z,83.88
2017-01-07T09:19:54.346Z,83.88
2017-01-07T09:20:58.572Z,83.78
2017-01-07T09:22:02.791Z,83.31
2017-01-07T09:23:08.093Z,83.31
2017-01-07T09:24:14.246Z,83.5
2017-01-07T09:25:20.408Z,83.5
2017-01-07T09:26:26.567Z,83.5
2017-01-07T09:27:31.770Z,83.22
2017-01-07T09:28:36.962Z,82.93
2017-01-07T09:29:43.159Z,82.65
2017-01-07T09:30:49.324Z,83.03
2017-01-07T09:31:55.485Z,82.93
2017-01-07T09:33:01.650Z,82.93
2017-01-07T09:34:05.885Z,82.46
2017-01-07T09:35:10.095Z,82.65
2017-01-07T09:36:16.259Z,82.37
2017-01-07T09:37:22.413Z,82.65
2017-01-07T09:38:27.609Z,82.46
2017-01-07T09:39:33.781Z,82.75
2017-01-07T09:40:38.004Z,82.93
2017-01-07T09:41:43.224Z,82.93
2017-01-07T09:42:48.421Z,82.37
2017-01-07T09:43:53.587Z,82.93
2017-01-07T09:44:59.755Z,82.46
2017-01-07T09:46:06.011Z,82.37
2017-01-07T09:47:11.212Z,82.65
2017-01-07T09:48:16.426Z,82.18
2017-01-07T09:49:20.680Z,82.46
2017-01-07T09:50:25.874Z,82.46
2017-01-07T09:51:31.064Z,82.18
2017-01-07T09:52:36.306Z,83.12
2017-01-07T09:53:41.447Z,82.18
2017-01-07T09:54:46.702Z,82.09
2017-01-07T09:55:51.960Z,81.9
2017-01-07T09:56:58.068Z,81.61
2017-01-07T09:58:03.261Z,81.14
2017-01-07T09:59:09.426Z,80.57
2017-01-07T10:00:14.619Z,81.23
2017-01-07T10:01:20.813Z,81.14
2017-01-07T10:02:26.971Z,81.14
2017-01-07T10:03:33.130Z,81.33
2017-01-07T10:04:39.364Z,81.04
2017-01-07T10:05:44.562Z,80.66
2017-01-07T10:06:49.764Z,80.66
2017-01-07T10:07:54.039Z,81.23
2017-01-07T10:08:57.352Z,81.9
2017-01-07T10:10:02.551Z,82.18
2017-01-07T10:11:08.707Z,81.99
2017-01-07T10:12:14.977Z,81.14
2017-01-07T10:13:21.137Z,80.19
2017-01-07T10:14:26.348Z,80.57
2017-01-07T10:15:32.513Z,80.76
2017-01-07T10:16:37.711Z,80.95
2017-01-07T10:17:42.875Z,81.14
2017-01-07T10:18:47.084Z,81.99
2017-01-07T10:19:53.275Z,82.46
2017-01-07T10:20:59.406Z,82.09
2017-01-07T10:22:04.602Z,82.09
2017-01-07T10:23:10.767Z,81.04
2017-01-07T10:24:16.940Z,80.76
2017-01-07T10:25:20.173Z,81.04
2017-01-07T10:26:24.402Z,81.04
2017-01-07T10:27:28.698Z,81.33
2017-01-07T10:28:34.000Z,81.52
2017-01-07T10:29:38.833Z,82.18
2017-01-07T10:30:44.958Z,81.99
2017-01-07T10:31:51.124Z,81.71
2017-01-07T10:32:56.307Z,81.14
2017-01-07T10:34:02.468Z,81.52
2017-01-07T10:35:08.635Z,81.71
2017-01-07T10:36:14.800Z,81.99
2017-01-07T10:37:20.964Z,81.61
2017-01-07T10:38:26.296Z,82.18
2017-01-07T10:39:31.488Z,81.8
2017-01-07T10:40:35.720Z,81.99
2017-01-07T10:41:40.920Z,82.09
2017-01-07T10:42:46.119Z,81.8
2017-01-07T10:43:50.326Z,81.14
2017-01-07T10:44:55.557Z,81.33
2017-01-07T10:46:01.692Z,81.71
2017-01-07T10:47:07.856Z,81.99
2017-01-07T10:48:14.020Z,81.8
2017-01-07T10:49:18.252Z,82.18
2017-01-07T10:50:23.201Z,82.65
2017-01-07T10:51:29.361Z,82.09
2017-01-07T10:52:34.530Z,81.8
2017-01-07T10:53:40.686Z,81.99
2017-01-07T10:54:45.923Z,81.27
2017-01-07T10:55:50.193Z,81.18
2017-01-07T10:56:56.319Z,81.27
2017-01-07T10:58:01.511Z,80.57
2017-01-07T10:59:06.710Z,81.52
2017-01-07T11:00:12.883Z,81.52
2017-01-07T11:01:19.050Z,81.99
2017-01-07T11:02:24.292Z,81.61
2017-01-07T11:03:30.458Z,81.14
2017-01-07T11:04:35.824Z,81.46
2017-01-07T11:05:40.028Z,80.95
2017-01-07T11:06:46.193Z,81.18
2017-01-07T11:07:52.423Z,81.14
2017-01-07T11:08:57.653Z,81.18
2017-01-07T11:10:02.826Z,81.18
2017-01-07T11:11:08.026Z,81.33
2017-01-07T11:12:11.246Z,80.85
2017-01-07T11:13:16.519Z,81.14
2017-01-07T11:14:21.718Z,81.14
2017-01-07T11:15:28.012Z,81.93
2017-01-07T11:16:34.171Z,82.03
2017-01-07T11:17:39.363Z,81.9
2017-01-07T11:18:45.527Z,81.8
2017-01-07T11:19:49.765Z,81.14
2017-01-07T11:20:54.069Z,81.99
2017-01-07T11:22:00.228Z,81.8
2017-01-07T11:23:06.392Z,82.37
2017-01-07T11:24:11.592Z,82.22
2017-01-07T11:25:17.764Z,81.8
2017-01-07T11:26:23.923Z,82.18
2017-01-07T11:27:28.821Z,82.28
2017-01-07T11:28:35.073Z,81.99
2017-01-07T11:30:45.452Z,82.65
2017-01-07T11:31:50.656Z,83.03
2017-01-07T11:33:59.164Z,82.69
2017-01-07T11:35:04.358Z,82.75
2017-01-07T11:37:14.716Z,82.65
2017-01-07T11:38:19.034Z,82.69
2017-01-07T11:39:24.214Z,82.98
2017-01-07T11:40:29.434Z,83.73
2017-01-07T11:41:32.670Z,83.45
2017-01-07T11:42:37.890Z,83.92
2017-01-07T11:43:44.041Z,83.83
2017-01-07T11:44:50.207Z,84.39
2017-01-07T11:45:55.406Z,84.58
2017-01-07T11:47:00.640Z,84.86
2017-01-07T11:48:06.826Z,84.39
2017-01-07T11:49:12.388Z,84.86
2017-01-07T11:50:17.590Z,84.86
2017-01-07T11:51:22.908Z,84.68
2017-01-07T11:52:29.026Z,84.86
2017-01-07T11:53:33.235Z,84.2
2017-01-07T11:54:39.475Z,85.05
2017-01-07T11:55:44.669Z,85.05
2017-01-07T11:56:48.904Z,84.2
2017-01-07T11:57:54.078Z,84.77
2017-01-07T11:58:59.268Z,84.68
2017-01-07T12:00:05.433Z,84.96
2017-01-07T12:01:10.595Z,85.05
2017-01-07T12:02:14.869Z,84.58
2017-01-07T12:03:21.025Z,84.86
2017-01-07T12:04:25.255Z,84.77
2017-01-07T12:05:31.424Z,84.49
2017-01-07T12:06:37.592Z,85.05
2017-01-07T12:07:41.863Z,84.86
2017-01-07T12:08:47.053Z,84.77
2017-01-07T12:09:52.251Z,85.43
2017-01-07T12:10:56.535Z,85.53
2017-01-07T12:12:00.764Z,85.43
2017-01-07T12:13:03.990Z,85.53
2017-01-07T12:14:09.160Z,85.43
2017-01-07T12:15:15.329Z,85.72
2017-01-07T12:16:21.485Z,86.1
2017-01-07T12:17:25.728Z,86.38
2017-01-07T12:18:30.913Z,86.76
2017-01-07T12:19:36.120Z,86.76
2017-01-07T12:20:42.288Z,87.23
2017-01-07T12:21:48.448Z,87.32
2017-01-07T12:22:54.671Z,87.79
2017-01-07T12:23:58.907Z,88.27
2017-01-07T12:25:04.074Z,88.17
2017-01-07T12:26:09.246Z,88.46
2017-01-07T12:27:13.452Z,88.46
2017-01-07T12:28:17.653Z,89.12
2017-01-07T12:29:22.936Z,89.03
2017-01-07T12:30:26.235Z,89.26
2017-01-07T12:31:32.357Z,89.12
2017-01-07T12:32:35.599Z,89.5
2017-01-07T12:33:40.798Z,90.06
2017-01-07T12:34:46.036Z,90.44
2017-01-07T12:35:52.212Z,90.44
2017-01-07T12:36:55.502Z,89.97
2017-01-07T12:38:00.691Z,89.87
2017-01-07T12:39:05.943Z,90.44
2017-01-07T12:40:12.109Z,90.25
2017-01-07T12:41:15.340Z,90.16
2017-01-07T12:42:21.502Z,90.06
2017-01-07T12:43:25.748Z,90.44
2017-01-07T12:44:30.944Z,90.54
2017-01-07T12:45:35.170Z,90.63
2017-01-07T12:46:39.395Z,89.97
2017-01-07T12:47:45.563Z,90.06
2017-01-07T12:48:49.813Z,90.73
2017-01-07T12:49:56.102Z,91.2
2017-01-07T12:51:02.272Z,90.82
2017-01-07T12:52:08.434Z,90.91
2017-01-07T12:53:12.370Z,91.01
2017-01-07T12:54:16.595Z,91.2
2017-01-07T12:55:21.782Z,91.01
2017-01-07T12:56:26.962Z,91.58
2017-01-07T12:57:32.171Z,91.1
2017-01-07T12:58:38.337Z,91.2
2017-01-07T12:59:43.531Z,91.39
2017-01-07T13:00:49.695Z,91.58
2017-01-07T13:01:53.896Z,91.96
2017-01-07T13:02:58.124Z,91.58
2017-01-07T13:04:04.297Z,92.43
2017-01-07T13:05:09.495Z,92.52
2017-01-07T13:06:12.765Z,92.43
2017-01-07T13:07:17.932Z,92.33
2017-01-07T13:08:23.130Z,92.05
2017-01-07T13:09:28.420Z,92.24
2017-01-07T13:10:33.593Z,92.05
2017-01-07T13:11:38.868Z,92.61
2017-01-07T13:12:45.036Z,92.71
2017-01-07T13:13:51.260Z,92.9
2017-01-07T13:14:57.440Z,92.61
2017-01-07T13:16:01.677Z,92.99
2017-01-07T13:17:07.913Z,92.99
2017-01-07T13:18:14.073Z,93.13
2017-01-07T13:19:19.327Z,92.94
2017-01-07T13:20:24.534Z,92.8
2017-01-07T13:21:29.730Z,92.85
2017-01-07T13:22:35.893Z,93.32
2017-01-07T13:23:42.053Z,93.51
2017-01-07T13:24:48.217Z,93.66
2017-01-07T13:25:53.532Z,93.75
2017-01-07T13:26:59.746Z,93.66
2017-01-07T13:28:05.870Z,93.84
2017-01-07T13:29:11.103Z,93.66
2017-01-07T13:30:16.265Z,93.66
2017-01-07T13:31:20.875Z,93.75
2017-01-07T13:32:27.036Z,94.22
2017-01-07T13:33:30.269Z,94.03
2017-01-07T13:34:36.437Z,94.13
2017-01-07T13:35:41.631Z,94.32
2017-01-07T13:36:47.789Z,94.41
2017-01-07T13:37:53.948Z,94.22
2017-01-07T13:39:00.112Z,93.84
2017-01-07T13:40:05.315Z,94.41
2017-01-07T13:41:11.578Z,94.03
2017-01-07T13:42:17.739Z,93.84
2017-01-07T13:43:23.901Z,94.13
2017-01-07T13:44:30.073Z,93.84
2017-01-07T13:45:35.245Z,93.66
2017-01-07T13:46:41.401Z,93.75
2017-01-07T13:47:45.639Z,93.47
2017-01-07T13:48:50.876Z,93.66
2017-01-07T13:49:57.044Z,93.66
2017-01-07T13:51:01.250Z,93.75
2017-01-07T13:52:06.450Z,92.9
2017-01-07T13:53:11.640Z,92.99
2017-01-07T13:54:15.865Z,92.99
2017-01-07T13:55:21.995Z,92.9
2017-01-07T13:56:28.158Z,92.99
2017-01-07T13:57:34.314Z,92.99
2017-01-07T13:58:40.476Z,92.9
2017-01-07T13:59:45.672Z,93.28
2017-01-07T14:00:50.872Z,93.09
2017-01-07T14:01:54.112Z,93.18
2017-01-07T14:02:59.291Z,93.18
2017-01-07T14:04:04.490Z,93.09
2017-01-07T14:05:09.665Z,93.56
2017-01-07T14:06:15.481Z,93.66
2017-01-07T14:07:20.676Z,94.22
2017-01-07T14:08:25.846Z,93.66
2017-01-07T14:09:29.119Z,93.47
2017-01-07T14:10:33.350Z,93.66
2017-01-07T14:11:38.753Z,94.32
2017-01-07T14:12:45.011Z,94.03